sensor_id;sensor_type;location;lat;lon;timestamp;temperature;humidity
582;DHT22;277;50.074;8.436;2023-03-01T00:01:16;1.20;99.90
582;DHT22;277;50.074;8.436;2023-03-01T00:03:46;1.20;99.90
582;DHT22;277;50.074;8.436;2023-03-01T00:06:14;1.20;99.90
582;DHT22;277;50.074;8.436;2023-03-01T00:08:42;1.30;99.90
582;DHT22;277;50.074;8.436;2023-03-01T00:11:12;1.40;99.90
582;DHT22;277;50.074;8.436;2023-03-01T00:13:42;1.70;99.90
582;DHT22;277;50.074;8.436;2023-03-01T00:16:16;1.70;99.90
582;DHT22;277;50.074;8.436;2023-03-01T00:18:46;1.80;99.90
582;DHT22;277;50.074;8.436;2023-03-01T00:21:14;1.80;99.90
582;DHT22;277;50.074;8.436;2023-03-01T00:23:42;1.80;99.90
582;DHT22;277;50.074;8.436;2023-03-01T00:26:13;1.70;99.90
582;DHT22;277;50.074;8.436;2023-03-01T00:28:41;1.80;99.90
582;DHT22;277;50.074;8.436;2023-03-01T00:31:11;2.00;99.90
582;DHT22;277;50.074;8.436;2023-03-01T00:33:40;2.20;99.90
582;DHT22;277;50.074;8.436;2023-03-01T00:36:10;2.20;99.90
582;DHT22;277;50.074;8.436;2023-03-01T00:38:40;2.20;99.90
582;DHT22;277;50.074;8.436;2023-03-01T00:41:10;2.20;99.90
582;DHT22;277;50.074;8.436;2023-03-01T00:43:37;2.20;99.90
582;DHT22;277;50.074;8.436;2023-03-01T00:46:07;2.20;99.90
582;DHT22;277;50.074;8.436;2023-03-01T00:48:36;2.10;99.90
582;DHT22;277;50.074;8.436;2023-03-01T00:51:05;1.90;99.90
582;DHT22;277;50.074;8.436;2023-03-01T00:53:35;1.70;99.90
582;DHT22;277;50.074;8.436;2023-03-01T00:56:05;1.60;99.90
582;DHT22;277;50.074;8.436;2023-03-01T00:58:34;1.60;99.90
582;DHT22;277;50.074;8.436;2023-03-01T01:01:07;1.70;99.90
582;DHT22;277;50.074;8.436;2023-03-01T01:03:45;1.90;99.90
582;DHT22;277;50.074;8.436;2023-03-01T01:06:18;2.20;99.90
582;DHT22;277;50.074;8.436;2023-03-01T01:08:48;2.30;99.90
582;DHT22;277;50.074;8.436;2023-03-01T01:11:17;2.40;99.90
582;DHT22;277;50.074;8.436;2023-03-01T01:13:45;2.20;99.90
582;DHT22;277;50.074;8.436;2023-03-01T01:16:14;2.10;99.90
582;DHT22;277;50.074;8.436;2023-03-01T01:18:42;2.00;99.90
582;DHT22;277;50.074;8.436;2023-03-01T01:21:12;1.90;99.90
582;DHT22;277;50.074;8.436;2023-03-01T01:23:42;1.90;99.90
582;DHT22;277;50.074;8.436;2023-03-01T01:26:13;1.90;99.90
582;DHT22;277;50.074;8.436;2023-03-01T01:28:41;2.00;99.90
582;DHT22;277;50.074;8.436;2023-03-01T01:31:09;2.00;99.90
582;DHT22;277;50.074;8.436;2023-03-01T01:33:38;1.90;99.90
582;DHT22;277;50.074;8.436;2023-03-01T01:36:07;1.90;99.90
582;DHT22;277;50.074;8.436;2023-03-01T01:38:35;1.80;99.90
582;DHT22;277;50.074;8.436;2023-03-01T01:41:04;1.50;99.90
582;DHT22;277;50.074;8.436;2023-03-01T01:43:36;1.50;99.90
582;DHT22;277;50.074;8.436;2023-03-01T01:46:07;1.70;99.90
582;DHT22;277;50.074;8.436;2023-03-01T01:48:43;1.50;99.90
582;DHT22;277;50.074;8.436;2023-03-01T01:51:14;1.30;99.90
582;DHT22;277;50.074;8.436;2023-03-01T01:53:43;1.10;99.90
582;DHT22;277;50.074;8.436;2023-03-01T01:56:13;1.00;99.90
582;DHT22;277;50.074;8.436;2023-03-01T01:58:43;1.00;99.90
582;DHT22;277;50.074;8.436;2023-03-01T02:01:12;0.90;99.90
582;DHT22;277;50.074;8.436;2023-03-01T02:03:43;0.90;99.90
582;DHT22;277;50.074;8.436;2023-03-01T02:06:15;0.80;99.90
582;DHT22;277;50.074;8.436;2023-03-01T02:08:47;0.80;99.90
582;DHT22;277;50.074;8.436;2023-03-01T02:11:17;0.80;99.90
582;DHT22;277;50.074;8.436;2023-03-01T02:13:48;0.80;99.90
582;DHT22;277;50.074;8.436;2023-03-01T02:16:17;0.70;99.90
582;DHT22;277;50.074;8.436;2023-03-01T02:18:45;0.80;99.90
582;DHT22;277;50.074;8.436;2023-03-01T02:21:32;0.80;99.90
582;DHT22;277;50.074;8.436;2023-03-01T02:24:10;0.80;99.90
582;DHT22;277;50.074;8.436;2023-03-01T02:26:49;0.80;99.90
582;DHT22;277;50.074;8.436;2023-03-01T02:29:20;0.80;99.90
582;DHT22;277;50.074;8.436;2023-03-01T02:31:49;0.80;99.90
582;DHT22;277;50.074;8.436;2023-03-01T02:34:20;0.80;99.90
582;DHT22;277;50.074;8.436;2023-03-01T02:36:52;0.80;99.90
582;DHT22;277;50.074;8.436;2023-03-01T02:39:25;0.80;99.90
582;DHT22;277;50.074;8.436;2023-03-01T02:41:54;0.80;99.90
582;DHT22;277;50.074;8.436;2023-03-01T02:44:25;0.80;99.90
582;DHT22;277;50.074;8.436;2023-03-01T02:46:55;0.80;99.90
582;DHT22;277;50.074;8.436;2023-03-01T02:49:25;0.80;99.90
582;DHT22;277;50.074;8.436;2023-03-01T02:52:20;0.80;99.90
582;DHT22;277;50.074;8.436;2023-03-01T02:54:52;0.80;99.90
582;DHT22;277;50.074;8.436;2023-03-01T02:57:23;0.80;99.90
582;DHT22;277;50.074;8.436;2023-03-01T02:59:56;0.80;99.90
582;DHT22;277;50.074;8.436;2023-03-01T03:02:26;0.80;99.90
582;DHT22;277;50.074;8.436;2023-03-01T03:05:06;0.80;99.90
582;DHT22;277;50.074;8.436;2023-03-01T03:07:36;0.80;99.90
582;DHT22;277;50.074;8.436;2023-03-01T03:10:06;0.80;99.90
582;DHT22;277;50.074;8.436;2023-03-01T03:12:35;0.80;99.90
582;DHT22;277;50.074;8.436;2023-03-01T03:15:06;0.80;99.90
582;DHT22;277;50.074;8.436;2023-03-01T03:17:35;0.80;99.90
582;DHT22;277;50.074;8.436;2023-03-01T03:20:04;0.80;99.90
582;DHT22;277;50.074;8.436;2023-03-01T03:22:33;0.80;99.90
582;DHT22;277;50.074;8.436;2023-03-01T03:25:01;0.80;99.90
582;DHT22;277;50.074;8.436;2023-03-01T03:27:29;0.80;99.90
582;DHT22;277;50.074;8.436;2023-03-01T03:29:58;0.80;99.90
582;DHT22;277;50.074;8.436;2023-03-01T03:32:27;0.80;99.90
582;DHT22;277;50.074;8.436;2023-03-01T03:34:55;0.80;99.90
582;DHT22;277;50.074;8.436;2023-03-01T03:37:23;0.70;99.90
582;DHT22;277;50.074;8.436;2023-03-01T03:40:30;0.70;99.90
582;DHT22;277;50.074;8.436;2023-03-01T03:42:58;0.70;99.90
582;DHT22;277;50.074;8.436;2023-03-01T03:45:26;0.70;99.90
582;DHT22;277;50.074;8.436;2023-03-01T03:47:55;0.80;99.90
582;DHT22;277;50.074;8.436;2023-03-01T03:50:23;0.70;99.90
582;DHT22;277;50.074;8.436;2023-03-01T03:52:51;0.70;99.90
582;DHT22;277;50.074;8.436;2023-03-01T03:55:19;0.70;99.90
582;DHT22;277;50.074;8.436;2023-03-01T03:57:48;0.70;99.90
582;DHT22;277;50.074;8.436;2023-03-01T04:00:19;0.70;99.90
582;DHT22;277;50.074;8.436;2023-03-01T04:02:48;0.70;99.90
582;DHT22;277;50.074;8.436;2023-03-01T04:05:18;0.70;99.90
582;DHT22;277;50.074;8.436;2023-03-01T04:07:46;0.70;99.90
582;DHT22;277;50.074;8.436;2023-03-01T04:10:16;0.70;99.90
582;DHT22;277;50.074;8.436;2023-03-01T04:12:44;0.80;99.90
582;DHT22;277;50.074;8.436;2023-03-01T04:15:12;0.70;99.90
582;DHT22;277;50.074;8.436;2023-03-01T04:17:40;0.70;99.90
582;DHT22;277;50.074;8.436;2023-03-01T04:20:10;0.70;99.90
582;DHT22;277;50.074;8.436;2023-03-01T04:22:40;0.60;99.90
582;DHT22;277;50.074;8.436;2023-03-01T04:25:08;0.60;99.90
582;DHT22;277;50.074;8.436;2023-03-01T04:27:40;0.50;99.90
582;DHT22;277;50.074;8.436;2023-03-01T04:30:10;0.50;99.90
582;DHT22;277;50.074;8.436;2023-03-01T04:32:38;0.50;99.90
582;DHT22;277;50.074;8.436;2023-03-01T04:35:06;0.50;99.90
582;DHT22;277;50.074;8.436;2023-03-01T04:37:34;0.50;99.90
582;DHT22;277;50.074;8.436;2023-03-01T04:40:05;0.50;99.90
582;DHT22;277;50.074;8.436;2023-03-01T04:42:42;0.50;99.90
582;DHT22;277;50.074;8.436;2023-03-01T04:45:10;0.50;99.90
582;DHT22;277;50.074;8.436;2023-03-01T04:47:40;0.50;99.90
582;DHT22;277;50.074;8.436;2023-03-01T04:50:10;0.40;99.90
582;DHT22;277;50.074;8.436;2023-03-01T04:52:38;0.40;99.90
582;DHT22;277;50.074;8.436;2023-03-01T04:55:08;0.50;99.90
582;DHT22;277;50.074;8.436;2023-03-01T04:57:37;0.40;99.90
582;DHT22;277;50.074;8.436;2023-03-01T05:00:07;0.40;99.90
582;DHT22;277;50.074;8.436;2023-03-01T05:02:52;0.40;99.90
582;DHT22;277;50.074;8.436;2023-03-01T05:05:22;0.40;99.90
582;DHT22;277;50.074;8.436;2023-03-01T05:07:58;0.40;99.90
582;DHT22;277;50.074;8.436;2023-03-01T05:10:29;0.40;99.90
582;DHT22;277;50.074;8.436;2023-03-01T05:12:58;0.30;99.90
582;DHT22;277;50.074;8.436;2023-03-01T05:15:28;0.30;99.90
582;DHT22;277;50.074;8.436;2023-03-01T05:17:57;0.30;99.90
582;DHT22;277;50.074;8.436;2023-03-01T05:20:26;0.30;99.90
582;DHT22;277;50.074;8.436;2023-03-01T05:22:58;0.30;99.90
582;DHT22;277;50.074;8.436;2023-03-01T05:25:28;0.40;99.90
582;DHT22;277;50.074;8.436;2023-03-01T05:27:59;0.40;99.90
582;DHT22;277;50.074;8.436;2023-03-01T05:30:31;0.40;99.90
582;DHT22;277;50.074;8.436;2023-03-01T05:32:59;0.40;99.90
582;DHT22;277;50.074;8.436;2023-03-01T05:35:27;0.40;99.90
582;DHT22;277;50.074;8.436;2023-03-01T05:37:56;0.50;99.90
582;DHT22;277;50.074;8.436;2023-03-01T05:40:24;0.40;99.90
582;DHT22;277;50.074;8.436;2023-03-01T05:42:55;0.50;99.90
582;DHT22;277;50.074;8.436;2023-03-01T05:45:24;0.40;99.90
582;DHT22;277;50.074;8.436;2023-03-01T05:47:53;0.40;99.90
582;DHT22;277;50.074;8.436;2023-03-01T05:50:23;0.50;99.90
582;DHT22;277;50.074;8.436;2023-03-01T05:52:57;0.50;99.90
582;DHT22;277;50.074;8.436;2023-03-01T05:55:26;0.50;99.90
582;DHT22;277;50.074;8.436;2023-03-01T05:57:58;0.50;99.90
582;DHT22;277;50.074;8.436;2023-03-01T06:00:27;0.50;99.90
582;DHT22;277;50.074;8.436;2023-03-01T06:02:56;0.50;99.90
582;DHT22;277;50.074;8.436;2023-03-01T06:05:24;0.60;99.90
582;DHT22;277;50.074;8.436;2023-03-01T06:07:52;0.60;99.90
582;DHT22;277;50.074;8.436;2023-03-01T06:10:22;0.60;99.90
582;DHT22;277;50.074;8.436;2023-03-01T06:12:49;0.60;99.90
582;DHT22;277;50.074;8.436;2023-03-01T06:15:19;0.70;99.90
582;DHT22;277;50.074;8.436;2023-03-01T06:17:47;0.70;99.90
582;DHT22;277;50.074;8.436;2023-03-01T06:20:16;0.70;99.90
582;DHT22;277;50.074;8.436;2023-03-01T06:22:45;0.60;99.90
582;DHT22;277;50.074;8.436;2023-03-01T06:25:14;0.70;99.90
582;DHT22;277;50.074;8.436;2023-03-01T06:27:43;0.70;99.90
582;DHT22;277;50.074;8.436;2023-03-01T06:30:13;0.70;99.90
582;DHT22;277;50.074;8.436;2023-03-01T06:32:43;0.70;99.90
582;DHT22;277;50.074;8.436;2023-03-01T06:35:11;0.70;99.90
582;DHT22;277;50.074;8.436;2023-03-01T06:37:40;0.70;99.90
582;DHT22;277;50.074;8.436;2023-03-01T06:40:10;0.70;99.90
582;DHT22;277;50.074;8.436;2023-03-01T06:42:41;0.80;99.90
582;DHT22;277;50.074;8.436;2023-03-01T06:45:11;0.70;99.90
582;DHT22;277;50.074;8.436;2023-03-01T06:47:39;0.80;99.90
582;DHT22;277;50.074;8.436;2023-03-01T06:50:09;0.80;99.90
582;DHT22;277;50.074;8.436;2023-03-01T06:52:38;0.70;99.90
582;DHT22;277;50.074;8.436;2023-03-01T06:55:06;0.80;99.90
582;DHT22;277;50.074;8.436;2023-03-01T06:57:34;0.80;99.90
582;DHT22;277;50.074;8.436;2023-03-01T07:00:03;0.70;99.90
582;DHT22;277;50.074;8.436;2023-03-01T07:02:31;0.80;99.90
582;DHT22;277;50.074;8.436;2023-03-01T07:04:59;0.80;99.90
582;DHT22;277;50.074;8.436;2023-03-01T07:07:28;0.80;99.90
582;DHT22;277;50.074;8.436;2023-03-01T07:09:56;0.70;99.90
582;DHT22;277;50.074;8.436;2023-03-01T07:12:24;0.80;99.90
582;DHT22;277;50.074;8.436;2023-03-01T07:14:52;0.90;99.90
582;DHT22;277;50.074;8.436;2023-03-01T07:17:20;0.90;99.90
582;DHT22;277;50.074;8.436;2023-03-01T07:19:48;1.00;99.90
582;DHT22;277;50.074;8.436;2023-03-01T07:22:15;1.00;99.90
582;DHT22;277;50.074;8.436;2023-03-01T07:24:45;1.10;99.90
582;DHT22;277;50.074;8.436;2023-03-01T07:27:12;1.10;99.90
582;DHT22;277;50.074;8.436;2023-03-01T07:29:40;1.20;99.90
582;DHT22;277;50.074;8.436;2023-03-01T07:32:09;1.20;99.90
582;DHT22;277;50.074;8.436;2023-03-01T07:34:38;1.30;99.90
582;DHT22;277;50.074;8.436;2023-03-01T07:37:06;1.40;99.90
582;DHT22;277;50.074;8.436;2023-03-01T07:39:34;1.40;99.90
582;DHT22;277;50.074;8.436;2023-03-01T07:42:03;1.50;99.90
582;DHT22;277;50.074;8.436;2023-03-01T07:44:31;1.60;99.90
582;DHT22;277;50.074;8.436;2023-03-01T07:46:58;1.70;99.90
582;DHT22;277;50.074;8.436;2023-03-01T07:49:26;1.70;99.90
582;DHT22;277;50.074;8.436;2023-03-01T07:51:54;1.80;99.90
582;DHT22;277;50.074;8.436;2023-03-01T07:54:22;1.80;99.90
582;DHT22;277;50.074;8.436;2023-03-01T07:56:50;1.90;99.90
582;DHT22;277;50.074;8.436;2023-03-01T07:59:20;2.00;99.90
582;DHT22;277;50.074;8.436;2023-03-01T08:01:48;2.00;99.90
582;DHT22;277;50.074;8.436;2023-03-01T08:04:16;2.10;99.90
582;DHT22;277;50.074;8.436;2023-03-01T08:06:44;2.20;99.90
582;DHT22;277;50.074;8.436;2023-03-01T08:09:12;2.30;99.90
582;DHT22;277;50.074;8.436;2023-03-01T08:11:39;2.50;99.90
582;DHT22;277;50.074;8.436;2023-03-01T08:14:07;2.60;99.90
582;DHT22;277;50.074;8.436;2023-03-01T08:16:37;2.80;99.90
582;DHT22;277;50.074;8.436;2023-03-01T08:19:05;2.90;99.90
582;DHT22;277;50.074;8.436;2023-03-01T08:21:33;3.00;99.90
582;DHT22;277;50.074;8.436;2023-03-01T08:24:03;3.10;99.90
582;DHT22;277;50.074;8.436;2023-03-01T08:26:31;3.20;99.90
582;DHT22;277;50.074;8.436;2023-03-01T08:29:00;3.30;99.90
582;DHT22;277;50.074;8.436;2023-03-01T08:31:30;3.40;99.90
582;DHT22;277;50.074;8.436;2023-03-01T08:34:02;3.40;99.90
582;DHT22;277;50.074;8.436;2023-03-01T08:36:32;3.50;99.90
582;DHT22;277;50.074;8.436;2023-03-01T08:39:01;3.70;99.90
582;DHT22;277;50.074;8.436;2023-03-01T08:41:29;3.70;99.90
582;DHT22;277;50.074;8.436;2023-03-01T08:43:57;3.80;99.90
582;DHT22;277;50.074;8.436;2023-03-01T08:46:26;3.90;99.90
582;DHT22;277;50.074;8.436;2023-03-01T08:48:55;4.00;99.90
582;DHT22;277;50.074;8.436;2023-03-01T08:51:25;4.30;99.90
582;DHT22;277;50.074;8.436;2023-03-01T08:53:53;4.50;99.90
582;DHT22;277;50.074;8.436;2023-03-01T08:56:21;4.70;99.90
582;DHT22;277;50.074;8.436;2023-03-01T08:58:49;4.80;99.90
582;DHT22;277;50.074;8.436;2023-03-01T09:01:18;4.80;99.90
582;DHT22;277;50.074;8.436;2023-03-01T09:03:47;5.00;99.90
582;DHT22;277;50.074;8.436;2023-03-01T09:06:15;5.10;99.90
582;DHT22;277;50.074;8.436;2023-03-01T09:08:46;5.10;99.90
582;DHT22;277;50.074;8.436;2023-03-01T09:11:17;5.20;99.90
582;DHT22;277;50.074;8.436;2023-03-01T09:13:46;5.20;99.90
582;DHT22;277;50.074;8.436;2023-03-01T09:16:15;5.30;99.90
582;DHT22;277;50.074;8.436;2023-03-01T09:18:48;5.60;99.90
582;DHT22;277;50.074;8.436;2023-03-01T09:21:17;5.70;99.90
582;DHT22;277;50.074;8.436;2023-03-01T09:24:05;5.60;99.90
582;DHT22;277;50.074;8.436;2023-03-01T09:26:33;5.70;99.90
582;DHT22;277;50.074;8.436;2023-03-01T09:29:01;5.70;99.90
582;DHT22;277;50.074;8.436;2023-03-01T09:31:28;5.60;99.90
582;DHT22;277;50.074;8.436;2023-03-01T09:33:56;5.60;99.90
582;DHT22;277;50.074;8.436;2023-03-01T09:36:24;5.70;99.90
582;DHT22;277;50.074;8.436;2023-03-01T09:38:53;6.00;99.90
582;DHT22;277;50.074;8.436;2023-03-01T09:41:46;6.00;99.90
582;DHT22;277;50.074;8.436;2023-03-01T09:44:27;6.20;99.90
582;DHT22;277;50.074;8.436;2023-03-01T09:46:58;6.50;99.90
582;DHT22;277;50.074;8.436;2023-03-01T09:49:28;6.70;99.90
582;DHT22;277;50.074;8.436;2023-03-01T09:52:00;6.70;99.90
582;DHT22;277;50.074;8.436;2023-03-01T09:54:31;6.60;99.90
582;DHT22;277;50.074;8.436;2023-03-01T09:57:18;6.70;99.90
582;DHT22;277;50.074;8.436;2023-03-01T10:00:03;6.70;99.90
582;DHT22;277;50.074;8.436;2023-03-01T10:02:39;6.70;99.90
582;DHT22;277;50.074;8.436;2023-03-01T10:05:19;6.90;99.90
582;DHT22;277;50.074;8.436;2023-03-01T10:07:53;7.10;99.90
582;DHT22;277;50.074;8.436;2023-03-01T10:10:27;7.20;99.90
582;DHT22;277;50.074;8.436;2023-03-01T10:13:00;7.30;99.90
582;DHT22;277;50.074;8.436;2023-03-01T10:15:35;7.50;99.90
582;DHT22;277;50.074;8.436;2023-03-01T10:18:11;7.50;99.90
582;DHT22;277;50.074;8.436;2023-03-01T10:20:45;7.40;99.90
582;DHT22;277;50.074;8.436;2023-03-01T10:23:15;7.30;99.90
582;DHT22;277;50.074;8.436;2023-03-01T10:25:55;7.50;99.90
582;DHT22;277;50.074;8.436;2023-03-01T10:28:31;7.70;99.40
582;DHT22;277;50.074;8.436;2023-03-01T10:31:05;7.80;99.30
582;DHT22;277;50.074;8.436;2023-03-01T10:33:39;7.80;99.10
582;DHT22;277;50.074;8.436;2023-03-01T10:36:08;7.70;99.30
582;DHT22;277;50.074;8.436;2023-03-01T10:38:48;7.50;99.40
582;DHT22;277;50.074;8.436;2023-03-01T10:41:19;7.60;99.30
582;DHT22;277;50.074;8.436;2023-03-01T10:43:51;7.70;99.20
582;DHT22;277;50.074;8.436;2023-03-01T10:46:25;7.90;99.20
582;DHT22;277;50.074;8.436;2023-03-01T10:49:16;8.00;98.60
582;DHT22;277;50.074;8.436;2023-03-01T10:51:48;8.20;98.80
582;DHT22;277;50.074;8.436;2023-03-01T10:54:18;8.20;98.70
582;DHT22;277;50.074;8.436;2023-03-01T10:56:49;8.30;98.50
582;DHT22;277;50.074;8.436;2023-03-01T10:59:27;8.20;98.40
582;DHT22;277;50.074;8.436;2023-03-01T11:02:04;8.30;98.60
582;DHT22;277;50.074;8.436;2023-03-01T11:04:59;8.50;97.90
582;DHT22;277;50.074;8.436;2023-03-01T11:07:28;8.80;98.20
582;DHT22;277;50.074;8.436;2023-03-01T11:09:56;9.10;97.10
582;DHT22;277;50.074;8.436;2023-03-01T11:12:24;8.70;97.20
582;DHT22;277;50.074;8.436;2023-03-01T11:14:54;8.80;96.90
582;DHT22;277;50.074;8.436;2023-03-01T11:17:24;8.70;97.00
582;DHT22;277;50.074;8.436;2023-03-01T11:20:02;8.70;97.00
582;DHT22;277;50.074;8.436;2023-03-01T11:22:34;8.50;96.60
582;DHT22;277;50.074;8.436;2023-03-01T11:25:04;8.60;96.70
582;DHT22;277;50.074;8.436;2023-03-01T11:27:39;8.70;96.60
582;DHT22;277;50.074;8.436;2023-03-01T11:30:18;8.80;96.80
582;DHT22;277;50.074;8.436;2023-03-01T11:32:53;9.00;96.50
582;DHT22;277;50.074;8.436;2023-03-01T11:35:27;9.20;96.00
582;DHT22;277;50.074;8.436;2023-03-01T11:38:04;9.20;95.60
582;DHT22;277;50.074;8.436;2023-03-01T11:40:37;9.40;95.60
582;DHT22;277;50.074;8.436;2023-03-01T11:43:15;9.70;95.10
582;DHT22;277;50.074;8.436;2023-03-01T11:45:58;10.00;94.60
582;DHT22;277;50.074;8.436;2023-03-01T11:48:38;10.50;93.70
582;DHT22;277;50.074;8.436;2023-03-01T11:51:22;10.20;93.40
582;DHT22;277;50.074;8.436;2023-03-01T11:54:00;10.20;93.50
582;DHT22;277;50.074;8.436;2023-03-01T11:56:34;10.20;93.30
582;DHT22;277;50.074;8.436;2023-03-01T12:05:32;10.30;92.50
582;DHT22;277;50.074;8.436;2023-03-01T12:08:11;10.70;92.80
582;DHT22;277;50.074;8.436;2023-03-01T12:10:46;10.90;91.80
582;DHT22;277;50.074;8.436;2023-03-01T12:13:43;11.10;91.90
582;DHT22;277;50.074;8.436;2023-03-01T12:19:33;11.00;90.60
582;DHT22;277;50.074;8.436;2023-03-01T12:22:29;11.00;90.80
582;DHT22;277;50.074;8.436;2023-03-01T12:25:20;10.90;90.80
582;DHT22;277;50.074;8.436;2023-03-01T12:28:31;11.10;90.60
582;DHT22;277;50.074;8.436;2023-03-01T12:34:01;11.10;90.00
582;DHT22;277;50.074;8.436;2023-03-01T12:36:49;10.90;90.10
582;DHT22;277;50.074;8.436;2023-03-01T12:39:36;11.00;89.50
582;DHT22;277;50.074;8.436;2023-03-01T12:42:14;11.10;90.00
582;DHT22;277;50.074;8.436;2023-03-01T12:45:24;11.10;88.70
582;DHT22;277;50.074;8.436;2023-03-01T12:48:14;11.30;88.20
582;DHT22;277;50.074;8.436;2023-03-01T12:50:48;11.70;88.40
582;DHT22;277;50.074;8.436;2023-03-01T12:53:23;11.50;87.80
582;DHT22;277;50.074;8.436;2023-03-01T12:55:53;11.60;87.80
582;DHT22;277;50.074;8.436;2023-03-01T12:58:27;11.70;87.20
582;DHT22;277;50.074;8.436;2023-03-01T13:01:21;11.90;86.80
582;DHT22;277;50.074;8.436;2023-03-01T13:04:16;12.10;86.70
582;DHT22;277;50.074;8.436;2023-03-01T13:06:54;12.10;85.40
582;DHT22;277;50.074;8.436;2023-03-01T13:09:29;11.80;85.70
582;DHT22;277;50.074;8.436;2023-03-01T13:11:57;12.00;84.10
582;DHT22;277;50.074;8.436;2023-03-01T13:14:44;11.90;84.10
582;DHT22;277;50.074;8.436;2023-03-01T13:17:40;11.70;84.90
582;DHT22;277;50.074;8.436;2023-03-01T13:20:15;11.20;84.30
582;DHT22;277;50.074;8.436;2023-03-01T13:22:45;11.20;85.70
582;DHT22;277;50.074;8.436;2023-03-01T13:25:21;11.40;86.40
582;DHT22;277;50.074;8.436;2023-03-01T13:28:45;11.40;85.50
582;DHT22;277;50.074;8.436;2023-03-01T13:34:45;11.50;86.40
582;DHT22;277;50.074;8.436;2023-03-01T13:37:25;11.60;84.30
582;DHT22;277;50.074;8.436;2023-03-01T13:39:57;11.50;82.90
582;DHT22;277;50.074;8.436;2023-03-01T13:42:34;11.70;83.50
582;DHT22;277;50.074;8.436;2023-03-01T13:45:21;11.60;84.50
582;DHT22;277;50.074;8.436;2023-03-01T13:47:55;11.90;83.60
582;DHT22;277;50.074;8.436;2023-03-01T13:50:28;12.20;83.00
582;DHT22;277;50.074;8.436;2023-03-01T13:52:59;12.40;83.20
582;DHT22;277;50.074;8.436;2023-03-01T13:55:37;12.60;82.50
582;DHT22;277;50.074;8.436;2023-03-01T13:58:16;12.00;82.00
582;DHT22;277;50.074;8.436;2023-03-01T14:00:54;11.60;83.40
582;DHT22;277;50.074;8.436;2023-03-01T14:03:23;11.20;83.70
582;DHT22;277;50.074;8.436;2023-03-01T14:06:00;11.00;84.50
582;DHT22;277;50.074;8.436;2023-03-01T14:08:39;10.90;85.10
582;DHT22;277;50.074;8.436;2023-03-01T14:11:33;11.10;85.20
582;DHT22;277;50.074;8.436;2023-03-01T14:14:43;11.10;85.50
582;DHT22;277;50.074;8.436;2023-03-01T14:17:46;11.00;85.80
582;DHT22;277;50.074;8.436;2023-03-01T14:20:19;10.90;85.80
582;DHT22;277;50.074;8.436;2023-03-01T14:22:49;11.00;85.60
582;DHT22;277;50.074;8.436;2023-03-01T14:25:27;11.20;85.40
582;DHT22;277;50.074;8.436;2023-03-01T14:28:02;11.10;85.00
582;DHT22;277;50.074;8.436;2023-03-01T14:30:35;11.00;85.10
582;DHT22;277;50.074;8.436;2023-03-01T14:33:16;11.00;84.90
582;DHT22;277;50.074;8.436;2023-03-01T14:35:53;11.00;84.90
582;DHT22;277;50.074;8.436;2023-03-01T14:38:23;10.90;84.40
582;DHT22;277;50.074;8.436;2023-03-01T14:40:54;10.90;85.30
582;DHT22;277;50.074;8.436;2023-03-01T14:43:24;10.90;85.90
582;DHT22;277;50.074;8.436;2023-03-01T14:45:52;10.70;85.80
582;DHT22;277;50.074;8.436;2023-03-01T14:48:22;10.20;84.70
582;DHT22;277;50.074;8.436;2023-03-01T14:50:50;9.70;86.50
582;DHT22;277;50.074;8.436;2023-03-01T14:53:21;9.20;88.20
582;DHT22;277;50.074;8.436;2023-03-01T14:55:52;9.00;89.80
582;DHT22;277;50.074;8.436;2023-03-01T14:58:22;8.80;90.20
582;DHT22;277;50.074;8.436;2023-03-01T15:00:52;8.70;90.50
582;DHT22;277;50.074;8.436;2023-03-01T15:03:27;8.60;90.80
582;DHT22;277;50.074;8.436;2023-03-01T15:05:56;8.50;90.40
582;DHT22;277;50.074;8.436;2023-03-01T15:08:25;8.40;90.50
582;DHT22;277;50.074;8.436;2023-03-01T15:11:02;8.40;90.60
582;DHT22;277;50.074;8.436;2023-03-01T15:13:35;8.40;91.00
582;DHT22;277;50.074;8.436;2023-03-01T15:16:06;8.30;90.60
582;DHT22;277;50.074;8.436;2023-03-01T15:18:37;8.20;90.50
582;DHT22;277;50.074;8.436;2023-03-01T15:21:07;8.20;90.80
582;DHT22;277;50.074;8.436;2023-03-01T15:23:37;8.20;91.30
582;DHT22;277;50.074;8.436;2023-03-01T15:26:06;8.20;91.20
582;DHT22;277;50.074;8.436;2023-03-01T15:28:50;8.20;91.10
582;DHT22;277;50.074;8.436;2023-03-01T15:31:20;8.10;91.30
582;DHT22;277;50.074;8.436;2023-03-01T15:33:50;8.10;91.30
582;DHT22;277;50.074;8.436;2023-03-01T15:36:35;8.10;91.30
582;DHT22;277;50.074;8.436;2023-03-01T15:39:04;7.90;91.20
582;DHT22;277;50.074;8.436;2023-03-01T15:41:46;7.90;91.30
582;DHT22;277;50.074;8.436;2023-03-01T15:44:16;7.90;91.50
582;DHT22;277;50.074;8.436;2023-03-01T15:46:46;7.80;91.60
582;DHT22;277;50.074;8.436;2023-03-01T15:49:34;7.80;91.80
582;DHT22;277;50.074;8.436;2023-03-01T15:52:22;7.70;91.90
582;DHT22;277;50.074;8.436;2023-03-01T15:54:59;7.70;92.10
582;DHT22;277;50.074;8.436;2023-03-01T15:57:27;7.70;92.00
582;DHT22;277;50.074;8.436;2023-03-01T15:59:55;7.60;92.30
582;DHT22;277;50.074;8.436;2023-03-01T16:02:24;7.70;92.50
582;DHT22;277;50.074;8.436;2023-03-01T16:04:53;7.60;92.60
582;DHT22;277;50.074;8.436;2023-03-01T16:07:23;7.60;92.70
582;DHT22;277;50.074;8.436;2023-03-01T16:09:51;7.50;92.90
582;DHT22;277;50.074;8.436;2023-03-01T16:12:18;7.50;93.20
582;DHT22;277;50.074;8.436;2023-03-01T16:14:47;7.40;93.30
582;DHT22;277;50.074;8.436;2023-03-01T16:17:16;7.40;93.50
582;DHT22;277;50.074;8.436;2023-03-01T16:19:43;7.30;93.50
582;DHT22;277;50.074;8.436;2023-03-01T16:22:13;7.30;93.70
582;DHT22;277;50.074;8.436;2023-03-01T16:24:41;7.10;93.70
582;DHT22;277;50.074;8.436;2023-03-01T16:27:08;7.10;94.10
582;DHT22;277;50.074;8.436;2023-03-01T16:29:37;7.00;93.90
582;DHT22;277;50.074;8.436;2023-03-01T16:32:05;6.90;93.70
582;DHT22;277;50.074;8.436;2023-03-01T16:34:33;6.90;93.80
582;DHT22;277;50.074;8.436;2023-03-01T16:37:00;6.80;93.80
582;DHT22;277;50.074;8.436;2023-03-01T16:39:30;6.80;94.10
582;DHT22;277;50.074;8.436;2023-03-01T16:41:59;6.80;94.20
582;DHT22;277;50.074;8.436;2023-03-01T16:44:27;6.70;94.30
582;DHT22;277;50.074;8.436;2023-03-01T16:46:55;6.70;94.50
582;DHT22;277;50.074;8.436;2023-03-01T16:49:23;6.60;94.40
582;DHT22;277;50.074;8.436;2023-03-01T16:51:53;6.60;94.50
582;DHT22;277;50.074;8.436;2023-03-01T16:54:21;6.50;94.30
582;DHT22;277;50.074;8.436;2023-03-01T16:56:50;6.50;94.20
582;DHT22;277;50.074;8.436;2023-03-01T16:59:18;6.40;94.30
582;DHT22;277;50.074;8.436;2023-03-01T17:01:46;6.40;94.40
582;DHT22;277;50.074;8.436;2023-03-01T17:04:14;6.30;93.90
582;DHT22;277;50.074;8.436;2023-03-01T17:06:43;6.20;94.00
582;DHT22;277;50.074;8.436;2023-03-01T17:09:11;6.20;94.10
582;DHT22;277;50.074;8.436;2023-03-01T17:11:39;6.20;94.10
582;DHT22;277;50.074;8.436;2023-03-01T17:14:08;6.10;94.10
582;DHT22;277;50.074;8.436;2023-03-01T17:16:36;6.10;94.20
582;DHT22;277;50.074;8.436;2023-03-01T17:19:04;6.00;94.30
582;DHT22;277;50.074;8.436;2023-03-01T17:21:32;6.00;94.40
582;DHT22;277;50.074;8.436;2023-03-01T17:24:00;5.90;94.60
582;DHT22;277;50.074;8.436;2023-03-01T17:26:29;5.80;94.60
582;DHT22;277;50.074;8.436;2023-03-01T17:28:57;5.80;94.60
582;DHT22;277;50.074;8.436;2023-03-01T17:31:26;5.80;94.70
582;DHT22;277;50.074;8.436;2023-03-01T17:33:54;5.70;94.90
582;DHT22;277;50.074;8.436;2023-03-01T17:36:26;5.60;94.80
582;DHT22;277;50.074;8.436;2023-03-01T17:38:53;5.60;94.90